sensor_id;sensor_type;location;lat;lon;timestamp;temperature;humidity
84265;DHT22;74412;45.626;5.108;2024-01-30T00:01:13;9.42;71.28
84265;DHT22;74412;45.626;5.108;2024-01-30T00:03:39;9.43;71.24
84265;DHT22;74412;45.626;5.108;2024-01-30T00:06:07;9.42;71.27
84265;DHT22;74412;45.626;5.108;2024-01-30T00:08:34;9.45;71.38
84265;DHT22;74412;45.626;5.108;2024-01-30T00:11:01;9.42;71.44
84265;DHT22;74412;45.626;5.108;2024-01-30T00:13:31;9.42;71.16
84265;DHT22;74412;45.626;5.108;2024-01-30T00:15:57;9.42;71.24
84265;DHT22;74412;45.626;5.108;2024-01-30T00:18:24;9.36;71.45
84265;DHT22;74412;45.626;5.108;2024-01-30T00:20:51;9.36;71.59
84265;DHT22;74412;45.626;5.108;2024-01-30T00:23:18;9.36;71.32
84265;DHT22;74412;45.626;5.108;2024-01-30T00:25:44;9.35;71.73
84265;DHT22;74412;45.626;5.108;2024-01-30T00:28:11;9.34;72.01
84265;DHT22;74412;45.626;5.108;2024-01-30T00:30:39;9.32;72.21
84265;DHT22;74412;45.626;5.108;2024-01-30T00:33:06;9.35;72.29
84265;DHT22;74412;45.626;5.108;2024-01-30T00:35:33;9.32;72.19
84265;DHT22;74412;45.626;5.108;2024-01-30T00:38:00;9.29;72.48
84265;DHT22;74412;45.626;5.108;2024-01-30T00:40:26;9.32;72.60
84265;DHT22;74412;45.626;5.108;2024-01-30T00:42:53;9.32;72.84
84265;DHT22;74412;45.626;5.108;2024-01-30T00:45:20;9.32;73.20
84265;DHT22;74412;45.626;5.108;2024-01-30T00:47:48;9.34;73.63
84265;DHT22;74412;45.626;5.108;2024-01-30T00:50:15;9.34;73.86
84265;DHT22;74412;45.626;5.108;2024-01-30T00:52:41;9.38;73.93
84265;DHT22;74412;45.626;5.108;2024-01-30T00:55:10;9.40;73.87
84265;DHT22;74412;45.626;5.108;2024-01-30T00:57:37;9.45;74.33
84265;DHT22;74412;45.626;5.108;2024-01-30T01:00:04;9.43;74.27
84265;DHT22;74412;45.626;5.108;2024-01-30T01:02:34;9.46;74.16
84265;DHT22;74412;45.626;5.108;2024-01-30T01:05:02;9.49;74.36
84265;DHT22;74412;45.626;5.108;2024-01-30T01:07:30;9.46;74.33
84265;DHT22;74412;45.626;5.108;2024-01-30T01:09:56;9.50;74.44
84265;DHT22;74412;45.626;5.108;2024-01-30T01:12:23;9.52;74.47
84265;DHT22;74412;45.626;5.108;2024-01-30T01:14:50;9.53;74.40
84265;DHT22;74412;45.626;5.108;2024-01-30T01:17:16;9.55;74.40
84265;DHT22;74412;45.626;5.108;2024-01-30T01:19:44;9.55;74.51
84265;DHT22;74412;45.626;5.108;2024-01-30T01:22:12;9.58;74.36
84265;DHT22;74412;45.626;5.108;2024-01-30T01:24:38;9.58;74.47
84265;DHT22;74412;45.626;5.108;2024-01-30T01:27:05;9.60;74.36
84265;DHT22;74412;45.626;5.108;2024-01-30T01:29:32;9.63;74.36
84265;DHT22;74412;45.626;5.108;2024-01-30T01:31:58;9.62;74.29
84265;DHT22;74412;45.626;5.108;2024-01-30T01:34:25;9.65;74.22
84265;DHT22;74412;45.626;5.108;2024-01-30T01:36:52;9.66;74.26
84265;DHT22;74412;45.626;5.108;2024-01-30T01:39:22;9.66;74.23
84265;DHT22;74412;45.626;5.108;2024-01-30T01:41:49;9.68;74.24
84265;DHT22;74412;45.626;5.108;2024-01-30T01:44:17;9.68;74.19
84265;DHT22;74412;45.626;5.108;2024-01-30T01:46:44;9.69;74.21
84265;DHT22;74412;45.626;5.108;2024-01-30T01:49:11;9.70;74.11
84265;DHT22;74412;45.626;5.108;2024-01-30T01:51:39;9.69;74.04
84265;DHT22;74412;45.626;5.108;2024-01-30T01:54:06;9.69;74.02
84265;DHT22;74412;45.626;5.108;2024-01-30T01:56:35;9.66;74.05
84265;DHT22;74412;45.626;5.108;2024-01-30T01:59:05;9.68;73.99
84265;DHT22;74412;45.626;5.108;2024-01-30T02:01:33;9.70;73.96
84265;DHT22;74412;45.626;5.108;2024-01-30T02:03:59;9.69;73.92
84265;DHT22;74412;45.626;5.108;2024-01-30T02:06:27;9.69;73.77
84265;DHT22;74412;45.626;5.108;2024-01-30T02:08:53;9.69;73.84
84265;DHT22;74412;45.626;5.108;2024-01-30T02:11:21;9.65;74.03
84265;DHT22;74412;45.626;5.108;2024-01-30T02:13:50;9.65;74.00
84265;DHT22;74412;45.626;5.108;2024-01-30T02:16:17;9.65;73.97
84265;DHT22;74412;45.626;5.108;2024-01-30T02:18:43;9.63;73.94
84265;DHT22;74412;45.626;5.108;2024-01-30T02:21:14;9.63;73.95
84265;DHT22;74412;45.626;5.108;2024-01-30T02:23:42;9.65;73.95
84265;DHT22;74412;45.626;5.108;2024-01-30T02:26:09;9.59;73.91
84265;DHT22;74412;45.626;5.108;2024-01-30T02:28:36;9.58;74.01
84265;DHT22;74412;45.626;5.108;2024-01-30T02:31:03;9.58;74.04
84265;DHT22;74412;45.626;5.108;2024-01-30T02:33:30;9.58;73.85
84265;DHT22;74412;45.626;5.108;2024-01-30T02:35:56;9.58;73.93
84265;DHT22;74412;45.626;5.108;2024-01-30T02:38:25;9.56;73.89
84265;DHT22;74412;45.626;5.108;2024-01-30T02:40:52;9.53;74.02
84265;DHT22;74412;45.626;5.108;2024-01-30T02:43:19;9.50;74.05
84265;DHT22;74412;45.626;5.108;2024-01-30T02:45:46;9.49;74.19
84265;DHT22;74412;45.626;5.108;2024-01-30T02:48:12;9.48;74.18
84265;DHT22;74412;45.626;5.108;2024-01-30T02:50:39;9.46;74.28
84265;DHT22;74412;45.626;5.108;2024-01-30T02:53:06;9.48;74.38
84265;DHT22;74412;45.626;5.108;2024-01-30T02:55:34;9.46;74.31
84265;DHT22;74412;45.626;5.108;2024-01-30T02:58:00;9.46;74.25
84265;DHT22;74412;45.626;5.108;2024-01-30T03:00:27;9.46;74.22
84265;DHT22;74412;45.626;5.108;2024-01-30T03:02:56;9.45;74.21
84265;DHT22;74412;45.626;5.108;2024-01-30T03:05:23;9.45;74.14
84265;DHT22;74412;45.626;5.108;2024-01-30T03:07:50;9.45;74.28
84265;DHT22;74412;45.626;5.108;2024-01-30T03:10:17;9.43;74.23
84265;DHT22;74412;45.626;5.108;2024-01-30T03:12:45;9.45;74.25
84265;DHT22;74412;45.626;5.108;2024-01-30T03:15:12;9.45;74.15
84265;DHT22;74412;45.626;5.108;2024-01-30T03:17:38;9.42;74.22
84265;DHT22;74412;45.626;5.108;2024-01-30T03:20:06;9.42;74.25
84265;DHT22;74412;45.626;5.108;2024-01-30T03:22:33;9.43;74.20
84265;DHT22;74412;45.626;5.108;2024-01-30T03:24:59;9.42;74.18
84265;DHT22;74412;45.626;5.108;2024-01-30T03:27:26;9.43;74.29
84265;DHT22;74412;45.626;5.108;2024-01-30T03:29:55;9.40;74.28
84265;DHT22;74412;45.626;5.108;2024-01-30T03:32:22;9.40;74.22
84265;DHT22;74412;45.626;5.108;2024-01-30T03:34:48;9.40;74.21
84265;DHT22;74412;45.626;5.108;2024-01-30T03:37:15;9.39;74.10
84265;DHT22;74412;45.626;5.108;2024-01-30T03:39:42;9.39;74.17
84265;DHT22;74412;45.626;5.108;2024-01-30T03:42:08;9.38;74.11
84265;DHT22;74412;45.626;5.108;2024-01-30T03:44:35;9.36;74.09
84265;DHT22;74412;45.626;5.108;2024-01-30T03:47:03;9.34;74.04
84265;DHT22;74412;45.626;5.108;2024-01-30T03:49:30;9.35;73.98
84265;DHT22;74412;45.626;5.108;2024-01-30T03:51:56;9.35;73.95
84265;DHT22;74412;45.626;5.108;2024-01-30T03:54:23;9.34;73.92
84265;DHT22;74412;45.626;5.108;2024-01-30T03:56:50;9.32;73.87
84265;DHT22;74412;45.626;5.108;2024-01-30T03:59:16;9.29;73.93
84265;DHT22;74412;45.626;5.108;2024-01-30T04:01:47;9.29;73.93
84265;DHT22;74412;45.626;5.108;2024-01-30T04:04:15;9.28;73.93
84265;DHT22;74412;45.626;5.108;2024-01-30T04:06:42;9.28;73.92
84265;DHT22;74412;45.626;5.108;2024-01-30T04:09:08;9.28;73.93
84265;DHT22;74412;45.626;5.108;2024-01-30T04:11:36;9.29;73.89
84265;DHT22;74412;45.626;5.108;2024-01-30T04:14:03;9.25;73.86
84265;DHT22;74412;45.626;5.108;2024-01-30T04:16:31;9.27;73.87
84265;DHT22;74412;45.626;5.108;2024-01-30T04:18:58;9.27;73.89
84265;DHT22;74412;45.626;5.108;2024-01-30T04:21:26;9.25;73.90
84265;DHT22;74412;45.626;5.108;2024-01-30T04:23:53;9.28;73.92
84265;DHT22;74412;45.626;5.108;2024-01-30T04:26:20;9.24;73.93
84265;DHT22;74412;45.626;5.108;2024-01-30T04:28:47;9.22;73.93
84265;DHT22;74412;45.626;5.108;2024-01-30T04:31:16;9.24;73.95
84265;DHT22;74412;45.626;5.108;2024-01-30T04:33:42;9.22;73.91
84265;DHT22;74412;45.626;5.108;2024-01-30T04:36:09;9.18;73.97
84265;DHT22;74412;45.626;5.108;2024-01-30T04:38:38;9.18;74.09
84265;DHT22;74412;45.626;5.108;2024-01-30T04:41:04;9.19;74.03
84265;DHT22;74412;45.626;5.108;2024-01-30T04:43:31;9.17;74.05
84265;DHT22;74412;45.626;5.108;2024-01-30T04:45:58;9.12;74.08
84265;DHT22;74412;45.626;5.108;2024-01-30T04:48:24;9.15;74.07
84265;DHT22;74412;45.626;5.108;2024-01-30T04:50:52;9.14;74.13
84265;DHT22;74412;45.626;5.108;2024-01-30T04:53:18;9.14;74.11
84265;DHT22;74412;45.626;5.108;2024-01-30T04:55:46;9.14;74.06
84265;DHT22;74412;45.626;5.108;2024-01-30T04:58:13;9.12;74.24
84265;DHT22;74412;45.626;5.108;2024-01-30T05:00:40;9.11;74.25
84265;DHT22;74412;45.626;5.108;2024-01-30T05:03:07;9.08;74.27
84265;DHT22;74412;45.626;5.108;2024-01-30T05:05:33;9.10;74.28
84265;DHT22;74412;45.626;5.108;2024-01-30T05:08:00;9.05;74.49
84265;DHT22;74412;45.626;5.108;2024-01-30T05:10:26;9.07;74.41
84265;DHT22;74412;45.626;5.108;2024-01-30T05:12:55;9.05;74.33
84265;DHT22;74412;45.626;5.108;2024-01-30T05:15:22;9.05;74.22
84265;DHT22;74412;45.626;5.108;2024-01-30T05:17:48;9.03;74.00
84265;DHT22;74412;45.626;5.108;2024-01-30T05:20:16;9.03;74.13
84265;DHT22;74412;45.626;5.108;2024-01-30T05:22:42;8.97;74.33
84265;DHT22;74412;45.626;5.108;2024-01-30T05:25:10;8.95;74.17
84265;DHT22;74412;45.626;5.108;2024-01-30T05:27:37;8.94;74.37
84265;DHT22;74412;45.626;5.108;2024-01-30T05:30:06;8.92;74.32
84265;DHT22;74412;45.626;5.108;2024-01-30T05:32:34;8.87;74.21
84265;DHT22;74412;45.626;5.108;2024-01-30T05:35:00;8.85;74.39
84265;DHT22;74412;45.626;5.108;2024-01-30T05:37:27;8.85;74.39
84265;DHT22;74412;45.626;5.108;2024-01-30T05:39:53;8.83;74.43
84265;DHT22;74412;45.626;5.108;2024-01-30T05:42:20;8.78;74.48
84265;DHT22;74412;45.626;5.108;2024-01-30T05:44:47;8.75;74.51
84265;DHT22;74412;45.626;5.108;2024-01-30T05:47:15;8.75;74.37
84265;DHT22;74412;45.626;5.108;2024-01-30T05:49:42;8.73;74.22
84265;DHT22;74412;45.626;5.108;2024-01-30T05:52:09;8.70;74.45
84265;DHT22;74412;45.626;5.108;2024-01-30T05:54:35;8.67;74.58
84265;DHT22;74412;45.626;5.108;2024-01-30T05:57:02;8.67;74.58
84265;DHT22;74412;45.626;5.108;2024-01-30T05:59:29;8.64;74.50
84265;DHT22;74412;45.626;5.108;2024-01-30T06:01:56;8.61;74.47
84265;DHT22;74412;45.626;5.108;2024-01-30T06:04:24;8.59;74.58
84265;DHT22;74412;45.626;5.108;2024-01-30T06:06:53;8.60;74.65
84265;DHT22;74412;45.626;5.108;2024-01-30T06:09:20;8.54;74.58
84265;DHT22;74412;45.626;5.108;2024-01-30T06:11:47;8.54;74.70
84265;DHT22;74412;45.626;5.108;2024-01-30T06:14:14;8.53;74.43
84265;DHT22;74412;45.626;5.108;2024-01-30T06:16:40;8.47;74.47
84265;DHT22;74412;45.626;5.108;2024-01-30T06:19:07;8.46;74.30
84265;DHT22;74412;45.626;5.108;2024-01-30T06:21:35;8.43;74.41
84265;DHT22;74412;45.626;5.108;2024-01-30T06:24:03;8.44;74.90
84265;DHT22;74412;45.626;5.108;2024-01-30T06:26:30;8.37;75.42
84265;DHT22;74412;45.626;5.108;2024-01-30T06:28:57;8.36;75.33
84265;DHT22;74412;45.626;5.108;2024-01-30T06:31:23;8.33;75.01
84265;DHT22;74412;45.626;5.108;2024-01-30T06:33:52;8.32;75.01
84265;DHT22;74412;45.626;5.108;2024-01-30T06:36:35;8.29;75.06
84265;DHT22;74412;45.626;5.108;2024-01-30T06:39:02;8.26;75.13
84265;DHT22;74412;45.626;5.108;2024-01-30T06:41:28;8.23;75.21
84265;DHT22;74412;45.626;5.108;2024-01-30T06:43:55;8.23;75.19
84265;DHT22;74412;45.626;5.108;2024-01-30T06:46:22;8.20;75.36
84265;DHT22;74412;45.626;5.108;2024-01-30T06:48:48;8.17;75.62
84265;DHT22;74412;45.626;5.108;2024-01-30T06:51:15;8.12;75.91
84265;DHT22;74412;45.626;5.108;2024-01-30T06:53:43;8.12;75.95
84265;DHT22;74412;45.626;5.108;2024-01-30T06:56:10;8.10;75.95
84265;DHT22;74412;45.626;5.108;2024-01-30T06:58:36;8.09;75.96
84265;DHT22;74412;45.626;5.108;2024-01-30T07:01:03;8.06;76.27
84265;DHT22;74412;45.626;5.108;2024-01-30T07:03:30;8.07;76.49
84265;DHT22;74412;45.626;5.108;2024-01-30T07:05:57;8.05;76.77
84265;DHT22;74412;45.626;5.108;2024-01-30T07:08:23;8.03;76.79
84265;DHT22;74412;45.626;5.108;2024-01-30T07:10:52;8.05;76.56
84265;DHT22;74412;45.626;5.108;2024-01-30T07:13:20;8.05;76.89
84265;DHT22;74412;45.626;5.108;2024-01-30T07:15:47;8.06;76.93
84265;DHT22;74412;45.626;5.108;2024-01-30T07:18:13;8.01;76.93
84265;DHT22;74412;45.626;5.108;2024-01-30T07:20:40;8.02;76.80
84265;DHT22;74412;45.626;5.108;2024-01-30T07:23:11;8.03;76.78
84265;DHT22;74412;45.626;5.108;2024-01-30T07:25:39;8.05;76.71
84265;DHT22;74412;45.626;5.108;2024-01-30T07:28:08;8.03;77.00
84265;DHT22;74412;45.626;5.108;2024-01-30T07:30:41;8.05;77.10
84265;DHT22;74412;45.626;5.108;2024-01-30T07:33:08;8.05;77.39
84265;DHT22;74412;45.626;5.108;2024-01-30T07:35:35;8.09;77.35
84265;DHT22;74412;45.626;5.108;2024-01-30T07:38:01;8.10;77.28
84265;DHT22;74412;45.626;5.108;2024-01-30T07:40:28;8.12;77.33
84265;DHT22;74412;45.626;5.108;2024-01-30T07:42:55;8.16;77.56
84265;DHT22;74412;45.626;5.108;2024-01-30T07:45:23;8.17;77.50
84265;DHT22;74412;45.626;5.108;2024-01-30T07:47:52;8.25;77.57
84265;DHT22;74412;45.626;5.108;2024-01-30T07:50:19;8.28;77.61
84265;DHT22;74412;45.626;5.108;2024-01-30T07:52:46;8.33;77.79
84265;DHT22;74412;45.626;5.108;2024-01-30T07:55:52;8.36;77.69
84265;DHT22;74412;45.626;5.108;2024-01-30T07:58:21;8.36;77.89
84265;DHT22;74412;45.626;5.108;2024-01-30T08:00:53;8.43;77.88
84265;DHT22;74412;45.626;5.108;2024-01-30T08:03:23;8.47;77.96
84265;DHT22;74412;45.626;5.108;2024-01-30T08:05:50;8.50;77.88
84265;DHT22;74412;45.626;5.108;2024-01-30T08:08:17;8.53;77.71
84265;DHT22;74412;45.626;5.108;2024-01-30T08:10:43;8.54;77.72
84265;DHT22;74412;45.626;5.108;2024-01-30T08:13:10;8.59;77.64
84265;DHT22;74412;45.626;5.108;2024-01-30T08:15:37;8.57;77.61
84265;DHT22;74412;45.626;5.108;2024-01-30T08:18:05;8.63;77.69
84265;DHT22;74412;45.626;5.108;2024-01-30T08:20:32;8.63;77.99
84265;DHT22;74412;45.626;5.108;2024-01-30T08:22:59;8.70;78.13
84265;DHT22;74412;45.626;5.108;2024-01-30T08:25:26;8.75;78.63
84265;DHT22;74412;45.626;5.108;2024-01-30T08:27:53;8.85;78.42
84265;DHT22;74412;45.626;5.108;2024-01-30T08:30:19;8.94;78.55
84265;DHT22;74412;45.626;5.108;2024-01-30T08:32:46;9.01;78.70
84265;DHT22;74412;45.626;5.108;2024-01-30T08:35:14;9.10;78.41
84265;DHT22;74412;45.626;5.108;2024-01-30T08:37:42;9.19;78.46
84265;DHT22;74412;45.626;5.108;2024-01-30T08:40:09;9.27;78.55
84265;DHT22;74412;45.626;5.108;2024-01-30T08:42:36;9.38;78.30
84265;DHT22;74412;45.626;5.108;2024-01-30T08:45:03;9.46;78.20
84265;DHT22;74412;45.626;5.108;2024-01-30T08:47:30;9.55;78.13
84265;DHT22;74412;45.626;5.108;2024-01-30T08:49:56;9.68;78.26
84265;DHT22;74412;45.626;5.108;2024-01-30T08:52:25;9.78;77.50
84265;DHT22;74412;45.626;5.108;2024-01-30T08:54:52;9.90;77.68
84265;DHT22;74412;45.626;5.108;2024-01-30T08:57:19;10.02;77.16
84265;DHT22;74412;45.626;5.108;2024-01-30T08:59:45;10.13;77.22
84265;DHT22;74412;45.626;5.108;2024-01-30T09:02:13;10.24;77.23
84265;DHT22;74412;45.626;5.108;2024-01-30T09:04:41;10.34;77.12
84265;DHT22;74412;45.626;5.108;2024-01-30T09:07:09;10.51;76.16
84265;DHT22;74412;45.626;5.108;2024-01-30T09:09:37;10.60;76.13
84265;DHT22;74412;45.626;5.108;2024-01-30T09:12:05;10.65;75.65
84265;DHT22;74412;45.626;5.108;2024-01-30T09:14:34;10.77;75.30
84265;DHT22;74412;45.626;5.108;2024-01-30T09:17:01;10.81;75.19
84265;DHT22;74412;45.626;5.108;2024-01-30T09:19:28;10.88;75.01
84265;DHT22;74412;45.626;5.108;2024-01-30T09:21:55;10.94;75.33
84265;DHT22;74412;45.626;5.108;2024-01-30T09:24:21;10.99;75.14
84265;DHT22;74412;45.626;5.108;2024-01-30T09:26:49;11.06;74.76
84265;DHT22;74412;45.626;5.108;2024-01-30T09:29:16;11.09;74.50
84265;DHT22;74412;45.626;5.108;2024-01-30T09:31:43;11.18;74.81
84265;DHT22;74412;45.626;5.108;2024-01-30T09:34:09;11.23;74.66
84265;DHT22;74412;45.626;5.108;2024-01-30T09:36:36;11.25;73.93
84265;DHT22;74412;45.626;5.108;2024-01-30T09:39:03;11.32;73.92
84265;DHT22;74412;45.626;5.108;2024-01-30T09:41:32;11.33;74.31
84265;DHT22;74412;45.626;5.108;2024-01-30T09:44:04;11.39;73.87
84265;DHT22;74412;45.626;5.108;2024-01-30T09:46:33;11.43;73.97
84265;DHT22;74412;45.626;5.108;2024-01-30T09:49:02;11.49;73.96
84265;DHT22;74412;45.626;5.108;2024-01-30T09:51:29;11.55;73.44
84265;DHT22;74412;45.626;5.108;2024-01-30T09:53:56;11.58;73.40
84265;DHT22;74412;45.626;5.108;2024-01-30T09:56:23;11.63;73.19
84265;DHT22;74412;45.626;5.108;2024-01-30T09:58:50;11.63;73.66
84265;DHT22;74412;45.626;5.108;2024-01-30T10:01:18;11.67;73.04
84265;DHT22;74412;45.626;5.108;2024-01-30T10:03:45;11.71;72.25
84265;DHT22;74412;45.626;5.108;2024-01-30T10:06:13;11.71;72.42
84265;DHT22;74412;45.626;5.108;2024-01-30T10:08:42;11.74;72.78
84265;DHT22;74412;45.626;5.108;2024-01-30T10:11:09;11.77;72.42
84265;DHT22;74412;45.626;5.108;2024-01-30T10:13:35;11.81;72.35
84265;DHT22;74412;45.626;5.108;2024-01-30T10:16:02;11.90;72.93
84265;DHT22;74412;45.626;5.108;2024-01-30T10:18:32;11.98;72.26
84265;DHT22;74412;45.626;5.108;2024-01-30T10:20:59;12.04;72.62
84265;DHT22;74412;45.626;5.108;2024-01-30T10:23:26;12.14;71.79
84265;DHT22;74412;45.626;5.108;2024-01-30T10:25:53;12.25;71.73
84265;DHT22;74412;45.626;5.108;2024-01-30T10:28:19;12.34;72.12
84265;DHT22;74412;45.626;5.108;2024-01-30T10:30:47;12.45;71.40
84265;DHT22;74412;45.626;5.108;2024-01-30T10:33:23;12.56;70.62
84265;DHT22;74412;45.626;5.108;2024-01-30T10:35:51;12.65;70.79
84265;DHT22;74412;45.626;5.108;2024-01-30T10:38:19;12.72;70.34
84265;DHT22;74412;45.626;5.108;2024-01-30T10:40:47;12.78;70.31
84265;DHT22;74412;45.626;5.108;2024-01-30T10:43:21;12.85;69.02
84265;DHT22;74412;45.626;5.108;2024-01-30T10:45:50;12.92;69.29
84265;DHT22;74412;45.626;5.108;2024-01-30T10:48:21;12.91;69.09
84265;DHT22;74412;45.626;5.108;2024-01-30T10:50:53;12.96;69.03
84265;DHT22;74412;45.626;5.108;2024-01-30T10:53:22;12.97;68.60
84265;DHT22;74412;45.626;5.108;2024-01-30T10:55:51;12.97;68.49
84265;DHT22;74412;45.626;5.108;2024-01-30T10:58:19;12.99;68.93
84265;DHT22;74412;45.626;5.108;2024-01-30T11:00:46;13.00;68.92
84265;DHT22;74412;45.626;5.108;2024-01-30T11:03:13;13.05;68.14
84265;DHT22;74412;45.626;5.108;2024-01-30T11:05:40;13.02;67.68
84265;DHT22;74412;45.626;5.108;2024-01-30T11:08:12;13.06;67.71
84265;DHT22;74412;45.626;5.108;2024-01-30T11:10:46;13.10;67.76
84265;DHT22;74412;45.626;5.108;2024-01-30T11:13:13;13.12;67.71
84265;DHT22;74412;45.626;5.108;2024-01-30T11:15:40;13.15;68.23
84265;DHT22;74412;45.626;5.108;2024-01-30T11:18:07;13.20;67.71
84265;DHT22;74412;45.626;5.108;2024-01-30T11:20:33;13.24;67.39
84265;DHT22;74412;45.626;5.108;2024-01-30T11:23:01;13.27;66.96
84265;DHT22;74412;45.626;5.108;2024-01-30T11:25:33;13.27;66.62
84265;DHT22;74412;45.626;5.108;2024-01-30T11:27:59;13.27;66.67
84265;DHT22;74412;45.626;5.108;2024-01-30T11:30:27;13.33;66.31
84265;DHT22;74412;45.626;5.108;2024-01-30T11:33:01;13.33;65.65
84265;DHT22;74412;45.626;5.108;2024-01-30T11:35:32;13.33;65.07
84265;DHT22;74412;45.626;5.108;2024-01-30T11:37:59;13.32;64.59
84265;DHT22;74412;45.626;5.108;2024-01-30T11:40:27;13.32;65.67
84265;DHT22;74412;45.626;5.108;2024-01-30T11:42:56;13.36;64.61
84265;DHT22;74412;45.626;5.108;2024-01-30T11:45:23;13.35;64.33
84265;DHT22;74412;45.626;5.108;2024-01-30T11:47:50;13.37;64.08
84265;DHT22;74412;45.626;5.108;2024-01-30T11:50:17;13.39;63.96
84265;DHT22;74412;45.626;5.108;2024-01-30T11:52:43;13.40;64.04
84265;DHT22;74412;45.626;5.108;2024-01-30T11:55:12;13.43;63.74
84265;DHT22;74412;45.626;5.108;2024-01-30T11:57:39;13.43;63.34
84265;DHT22;74412;45.626;5.108;2024-01-30T12:00:14;13.46;63.18
84265;DHT22;74412;45.626;5.108;2024-01-30T12:02:41;13.44;62.80
84265;DHT22;74412;45.626;5.108;2024-01-30T12:05:08;13.51;62.72
84265;DHT22;74412;45.626;5.108;2024-01-30T12:07:36;13.53;62.40
84265;DHT22;74412;45.626;5.108;2024-01-30T12:10:03;13.56;62.23
84265;DHT22;74412;45.626;5.108;2024-01-30T12:12:31;13.59;62.07
84265;DHT22;74412;45.626;5.108;2024-01-30T12:14:57;13.61;62.22
84265;DHT22;74412;45.626;5.108;2024-01-30T12:17:28;13.66;62.25
84265;DHT22;74412;45.626;5.108;2024-01-30T12:20:03;13.70;62.37
84265;DHT22;74412;45.626;5.108;2024-01-30T12:22:30;13.74;61.39
84265;DHT22;74412;45.626;5.108;2024-01-30T12:24:57;13.75;60.82
84265;DHT22;74412;45.626;5.108;2024-01-30T12:27:23;13.80;61.07
84265;DHT22;74412;45.626;5.108;2024-01-30T12:29:55;13.82;60.26
84265;DHT22;74412;45.626;5.108;2024-01-30T12:32:22;13.81;59.01
84265;DHT22;74412;45.626;5.108;2024-01-30T12:34:54;13.85;59.70
84265;DHT22;74412;45.626;5.108;2024-01-30T12:37:21;13.84;59.80
84265;DHT22;74412;45.626;5.108;2024-01-30T12:39:51;13.88;59.85
84265;DHT22;74412;45.626;5.108;2024-01-30T12:42:19;13.94;60.32
84265;DHT22;74412;45.626;5.108;2024-01-30T12:44:46;13.95;59.90
84265;DHT22;74412;45.626;5.108;2024-01-30T12:47:13;13.97;59.73
84265;DHT22;74412;45.626;5.108;2024-01-30T12:49:41;14.00;58.95
84265;DHT22;74412;45.626;5.108;2024-01-30T12:52:09;14.02;58.78
84265;DHT22;74412;45.626;5.108;2024-01-30T12:54:36;14.00;57.86
84265;DHT22;74412;45.626;5.108;2024-01-30T12:57:03;14.00;57.65
84265;DHT22;74412;45.626;5.108;2024-01-30T12:59:30;14.04;58.16
84265;DHT22;74412;45.626;5.108;2024-01-30T13:01:57;14.04;57.96
84265;DHT22;74412;45.626;5.108;2024-01-30T13:04:23;14.08;58.59
84265;DHT22;74412;45.626;5.108;2024-01-30T13:06:50;14.08;58.40
84265;DHT22;74412;45.626;5.108;2024-01-30T13:09:18;14.08;57.55
84265;DHT22;74412;45.626;5.108;2024-01-30T13:11:45;14.10;57.07
84265;DHT22;74412;45.626;5.108;2024-01-30T13:14:12;14.12;57.05
84265;DHT22;74412;45.626;5.108;2024-01-30T13:16:39;14.11;56.96
84265;DHT22;74412;45.626;5.108;2024-01-30T13:19:05;14.11;57.30
84265;DHT22;74412;45.626;5.108;2024-01-30T13:21:32;14.12;56.79
84265;DHT22;74412;45.626;5.108;2024-01-30T13:23:59;14.14;56.05
84265;DHT22;74412;45.626;5.108;2024-01-30T13:26:27;14.15;56.75
84265;DHT22;74412;45.626;5.108;2024-01-30T13:28:54;14.15;55.41
84265;DHT22;74412;45.626;5.108;2024-01-30T13:31:21;14.17;55.98
84265;DHT22;74412;45.626;5.108;2024-01-30T13:33:47;14.15;55.50
84265;DHT22;74412;45.626;5.108;2024-01-30T13:36:14;14.15;55.34
84265;DHT22;74412;45.626;5.108;2024-01-30T13:38:43;14.17;55.86
84265;DHT22;74412;45.626;5.108;2024-01-30T13:41:10;14.17;55.37
84265;DHT22;74412;45.626;5.108;2024-01-30T13:43:38;14.21;55.51
84265;DHT22;74412;45.626;5.108;2024-01-30T13:46:05;14.22;55.25
84265;DHT22;74412;45.626;5.108;2024-01-30T13:48:32;14.22;54.95
84265;DHT22;74412;45.626;5.108;2024-01-30T13:50:58;14.20;55.22
84265;DHT22;74412;45.626;5.108;2024-01-30T13:53:26;14.17;54.88
84265;DHT22;74412;45.626;5.108;2024-01-30T13:55:52;14.17;54.94
84265;DHT22;74412;45.626;5.108;2024-01-30T13:58:20;14.14;54.92
84265;DHT22;74412;45.626;5.108;2024-01-30T14:00:48;14.14;55.18
84265;DHT22;74412;45.626;5.108;2024-01-30T14:03:15;14.15;55.18
84265;DHT22;74412;45.626;5.108;2024-01-30T14:05:42;14.17;55.35
84265;DHT22;74412;45.626;5.108;2024-01-30T14:08:09;14.18;55.01
84265;DHT22;74412;45.626;5.108;2024-01-30T14:10:35;14.18;55.55
84265;DHT22;74412;45.626;5.108;2024-01-30T14:13:02;14.17;55.27
84265;DHT22;74412;45.626;5.108;2024-01-30T14:15:31;14.17;55.64
84265;DHT22;74412;45.626;5.108;2024-01-30T14:17:59;14.17;55.11
84265;DHT22;74412;45.626;5.108;2024-01-30T14:20:26;14.14;54.85
84265;DHT22;74412;45.626;5.108;2024-01-30T14:22:53;14.11;54.45
84265;DHT22;74412;45.626;5.108;2024-01-30T14:25:21;14.11;54.57
84265;DHT22;74412;45.626;5.108;2024-01-30T14:27:47;14.07;54.66
84265;DHT22;74412;45.626;5.108;2024-01-30T14:30:14;14.05;55.00
84265;DHT22;74412;45.626;5.108;2024-01-30T14:32:41;14.01;53.71
84265;DHT22;74412;45.626;5.108;2024-01-30T14:35:11;14.00;53.49
84265;DHT22;74412;45.626;5.108;2024-01-30T14:37:38;13.95;52.63
84265;DHT22;74412;45.626;5.108;2024-01-30T14:40:06;13.95;52.89
84265;DHT22;74412;45.626;5.108;2024-01-30T14:42:33;13.95;53.35
84265;DHT22;74412;45.626;5.108;2024-01-30T14:45:00;13.94;52.97
84265;DHT22;74412;45.626;5.108;2024-01-30T14:47:28;13.92;53.98
84265;DHT22;74412;45.626;5.108;2024-01-30T14:49:54;13.94;53.77
84265;DHT22;74412;45.626;5.108;2024-01-30T14:52:22;13.91;54.28
84265;DHT22;74412;45.626;5.108;2024-01-30T14:54:58;13.94;55.04
84265;DHT22;74412;45.626;5.108;2024-01-30T14:57:25;13.92;55.01
84265;DHT22;74412;45.626;5.108;2024-01-30T14:59:52;13.90;55.40
84265;DHT22;74412;45.626;5.108;2024-01-30T15:02:19;13.88;55.07
84265;DHT22;74412;45.626;5.108;2024-01-30T15:04:45;13.87;55.17
84265;DHT22;74412;45.626;5.108;2024-01-30T15:07:12;13.82;54.90
84265;DHT22;74412;45.626;5.108;2024-01-30T15:09:40;13.80;54.94
84265;DHT22;74412;45.626;5.108;2024-01-30T15:12:07;13.75;54.56
84265;DHT22;74412;45.626;5.108;2024-01-30T15:14:34;13.75;54.23
84265;DHT22;74412;45.626;5.108;2024-01-30T15:17:03;13.74;54.99
84265;DHT22;74412;45.626;5.108;2024-01-30T15:19:30;13.73;54.78
84265;DHT22;74412;45.626;5.108;2024-01-30T15:21:56;13.67;54.70
84265;DHT22;74412;45.626;5.108;2024-01-30T15:24:23;13.67;55.19
84265;DHT22;74412;45.626;5.108;2024-01-30T15:26:54;13.66;54.62
84265;DHT22;74412;45.626;5.108;2024-01-30T15:29:21;13.66;55.16
84265;DHT22;74412;45.626;5.108;2024-01-30T15:31:48;13.61;55.55
84265;DHT22;74412;45.626;5.108;2024-01-30T15:34:15;13.60;54.83
84265;DHT22;74412;45.626;5.108;2024-01-30T15:36:42;13.59;55.12
84265;DHT22;74412;45.626;5.108;2024-01-30T15:39:08;13.59;55.24
84265;DHT22;74412;45.626;5.108;2024-01-30T15:41:36;13.56;55.14